sensor_id;sensor_type;location;lat;lon;timestamp;P1;durP1;ratioP1;P2;durP2;ratioP2
75356;SDS011;63946;51.986;5.930;2023-01-09T06:05:08;3.17;;;1.67;;
75356;SDS011;63946;51.986;5.930;2023-01-09T06:07:37;3.67;;;1.60;;
75356;SDS011;63946;51.986;5.930;2023-01-09T06:10:07;4.75;;;1.40;;
75356;SDS011;63946;51.986;5.930;2023-01-09T06:12:38;3.20;;;1.90;;
75356;SDS011;63946;51.986;5.930;2023-01-09T06:15:09;4.05;;;2.20;;
75356;SDS011;63946;51.986;5.930;2023-01-09T06:17:40;3.35;;;1.58;;
75356;SDS011;63946;51.986;5.930;2023-01-09T06:20:09;5.63;;;2.30;;
75356;SDS011;63946;51.986;5.930;2023-01-09T06:22:38;3.38;;;2.03;;
75356;SDS011;63946;51.986;5.930;2023-01-09T06:25:09;4.32;;;2.83;;
75356;SDS011;63946;51.986;5.930;2023-01-09T06:27:41;4.13;;;1.73;;
75356;SDS011;63946;51.986;5.930;2023-01-09T06:30:10;4.13;;;1.83;;
75356;SDS011;63946;51.986;5.930;2023-01-09T06:32:39;4.55;;;1.80;;
75356;SDS011;63946;51.986;5.930;2023-01-09T06:35:11;3.92;;;1.95;;
75356;SDS011;63946;51.986;5.930;2023-01-09T06:37:40;8.52;;;2.20;;
75356;SDS011;63946;51.986;5.930;2023-01-09T06:40:08;3.53;;;1.60;;
75356;SDS011;63946;51.986;5.930;2023-01-09T06:42:40;7.00;;;2.13;;
75356;SDS011;63946;51.986;5.930;2023-01-09T06:45:11;8.38;;;2.10;;
75356;SDS011;63946;51.986;5.930;2023-01-09T06:47:40;3.63;;;1.80;;
75356;SDS011;63946;51.986;5.930;2023-01-09T06:50:12;4.80;;;1.80;;
75356;SDS011;63946;51.986;5.930;2023-01-09T06:52:41;5.28;;;1.80;;
75356;SDS011;63946;51.986;5.930;2023-01-09T06:55:12;6.72;;;1.90;;
75356;SDS011;63946;51.986;5.930;2023-01-09T06:57:42;3.45;;;2.42;;
75356;SDS011;63946;51.986;5.930;2023-01-09T07:00:11;4.32;;;1.73;;
75356;SDS011;63946;51.986;5.930;2023-01-09T07:02:40;5.38;;;2.13;;
75356;SDS011;63946;51.986;5.930;2023-01-09T07:05:09;6.82;;;2.17;;
75356;SDS011;63946;51.986;5.930;2023-01-09T07:07:38;5.40;;;2.25;;
75356;SDS011;63946;51.986;5.930;2023-01-09T07:10:08;8.32;;;2.25;;
75356;SDS011;63946;51.986;5.930;2023-01-09T07:12:40;6.35;;;1.80;;
75356;SDS011;63946;51.986;5.930;2023-01-09T07:15:09;3.13;;;1.83;;
75356;SDS011;63946;51.986;5.930;2023-01-09T07:17:38;4.45;;;1.48;;
75356;SDS011;63946;51.986;5.930;2023-01-09T07:20:07;6.43;;;1.80;;
75356;SDS011;63946;51.986;5.930;2023-01-09T07:22:37;4.78;;;2.15;;
75356;SDS011;63946;51.986;5.930;2023-01-09T07:25:05;3.25;;;1.92;;
75356;SDS011;63946;51.986;5.930;2023-01-09T07:27:34;7.40;;;1.92;;
75356;SDS011;63946;51.986;5.930;2023-01-09T07:30:06;7.75;;;2.60;;
75356;SDS011;63946;51.986;5.930;2023-01-09T07:32:36;6.57;;;1.92;;
75356;SDS011;63946;51.986;5.930;2023-01-09T07:35:08;3.55;;;1.63;;
75356;SDS011;63946;51.986;5.930;2023-01-09T07:37:37;5.13;;;1.80;;
75356;SDS011;63946;51.986;5.930;2023-01-09T07:40:06;5.93;;;2.85;;
75356;SDS011;63946;51.986;5.930;2023-01-09T07:42:38;6.35;;;2.15;;
75356;SDS011;63946;51.986;5.930;2023-01-09T07:45:06;5.60;;;2.40;;
75356;SDS011;63946;51.986;5.930;2023-01-09T07:47:38;6.68;;;2.80;;
75356;SDS011;63946;51.986;5.930;2023-01-09T07:50:08;6.70;;;1.80;;
75356;SDS011;63946;51.986;5.930;2023-01-09T07:52:37;5.93;;;2.55;;
75356;SDS011;63946;51.986;5.930;2023-01-09T07:55:06;5.53;;;1.40;;
75356;SDS011;63946;51.986;5.930;2023-01-09T07:57:36;4.43;;;2.10;;
75356;SDS011;63946;51.986;5.930;2023-01-09T08:00:05;4.05;;;2.15;;
75356;SDS011;63946;51.986;5.930;2023-01-09T08:02:38;5.78;;;1.73;;
75356;SDS011;63946;51.986;5.930;2023-01-09T08:05:07;7.25;;;2.00;;
75356;SDS011;63946;51.986;5.930;2023-01-09T08:07:39;4.90;;;1.95;;
75356;SDS011;63946;51.986;5.930;2023-01-09T08:10:08;3.85;;;1.92;;
75356;SDS011;63946;51.986;5.930;2023-01-09T08:12:41;5.20;;;1.48;;
75356;SDS011;63946;51.986;5.930;2023-01-09T08:15:10;4.85;;;2.25;;
75356;SDS011;63946;51.986;5.930;2023-01-09T08:17:40;3.20;;;1.60;;
75356;SDS011;63946;51.986;5.930;2023-01-09T08:20:13;5.00;;;2.75;;
75356;SDS011;63946;51.986;5.930;2023-01-09T08:22:45;3.15;;;2.00;;
75356;SDS011;63946;51.986;5.930;2023-01-09T08:25:18;5.53;;;2.20;;
75356;SDS011;63946;51.986;5.930;2023-01-09T08:27:47;11.45;;;6.57;;
75356;SDS011;63946;51.986;5.930;2023-01-09T08:30:16;4.63;;;2.47;;
75356;SDS011;63946;51.986;5.930;2023-01-09T08:32:48;3.97;;;2.55;;
75356;SDS011;63946;51.986;5.930;2023-01-09T08:35:18;6.60;;;2.28;;
75356;SDS011;63946;51.986;5.930;2023-01-09T08:37:47;5.45;;;2.40;;
75356;SDS011;63946;51.986;5.930;2023-01-09T08:40:17;6.05;;;2.10;;
75356;SDS011;63946;51.986;5.930;2023-01-09T08:42:49;4.90;;;2.00;;
75356;SDS011;63946;51.986;5.930;2023-01-09T08:45:30;6.45;;;2.40;;
75356;SDS011;63946;51.986;5.930;2023-01-09T08:48:12;5.05;;;2.75;;
75356;SDS011;63946;51.986;5.930;2023-01-09T08:50:41;5.13;;;2.35;;
75356;SDS011;63946;51.986;5.930;2023-01-09T08:53:11;5.05;;;2.35;;
75356;SDS011;63946;51.986;5.930;2023-01-09T08:55:40;4.97;;;2.70;;
75356;SDS011;63946;51.986;5.930;2023-01-09T08:58:09;4.97;;;2.30;;
75356;SDS011;63946;51.986;5.930;2023-01-09T09:00:38;4.53;;;2.78;;
75356;SDS011;63946;51.986;5.930;2023-01-09T09:03:07;4.95;;;2.40;;
75356;SDS011;63946;51.986;5.930;2023-01-09T09:05:37;5.15;;;2.53;;
75356;SDS011;63946;51.986;5.930;2023-01-09T09:08:06;3.83;;;2.70;;
75356;SDS011;63946;51.986;5.930;2023-01-09T09:10:34;5.05;;;2.38;;
75356;SDS011;63946;51.986;5.930;2023-01-09T09:13:04;5.15;;;2.40;;
75356;SDS011;63946;51.986;5.930;2023-01-09T09:15:33;4.07;;;2.42;;
75356;SDS011;63946;51.986;5.930;2023-01-09T09:18:04;3.55;;;2.08;;
75356;SDS011;63946;51.986;5.930;2023-01-09T09:20:35;4.90;;;2.65;;
75356;SDS011;63946;51.986;5.930;2023-01-09T09:23:05;3.28;;;2.33;;
75356;SDS011;63946;51.986;5.930;2023-01-09T09:25:35;4.38;;;2.30;;
75356;SDS011;63946;51.986;5.930;2023-01-09T09:28:04;4.35;;;2.35;;
75356;SDS011;63946;51.986;5.930;2023-01-09T09:30:34;4.07;;;2.50;;
75356;SDS011;63946;51.986;5.930;2023-01-09T09:33:02;3.25;;;2.53;;
75356;SDS011;63946;51.986;5.930;2023-01-09T09:35:32;4.43;;;2.50;;
75356;SDS011;63946;51.986;5.930;2023-01-09T09:38:01;4.47;;;3.03;;
75356;SDS011;63946;51.986;5.930;2023-01-09T09:40:44;5.68;;;2.70;;
75356;SDS011;63946;51.986;5.930;2023-01-09T09:48:53;3.30;;;2.45;;
75356;SDS011;63946;51.986;5.930;2023-01-09T09:51:26;5.03;;;2.60;;
75356;SDS011;63946;51.986;5.930;2023-01-09T09:54:12;5.90;;;2.45;;
75356;SDS011;63946;51.986;5.930;2023-01-09T09:57:02;3.38;;;2.15;;
75356;SDS011;63946;51.986;5.930;2023-01-09T09:59:33;3.47;;;2.80;;
75356;SDS011;63946;51.986;5.930;2023-01-09T10:04:38;4.18;;;2.45;;
75356;SDS011;63946;51.986;5.930;2023-01-09T10:07:14;3.70;;;2.05;;
75356;SDS011;63946;51.986;5.930;2023-01-09T10:09:54;4.78;;;2.20;;
75356;SDS011;63946;51.986;5.930;2023-01-09T10:12:30;4.03;;;2.47;;
75356;SDS011;63946;51.986;5.930;2023-01-09T10:15:24;3.70;;;2.50;;
75356;SDS011;63946;51.986;5.930;2023-01-09T10:18:01;3.22;;;2.38;;
75356;SDS011;63946;51.986;5.930;2023-01-09T10:31:31;5.50;;;2.92;;
75356;SDS011;63946;51.986;5.930;2023-01-09T10:34:13;5.95;;;3.30;;
75356;SDS011;63946;51.986;5.930;2023-01-09T10:37:11;3.72;;;3.08;;
75356;SDS011;63946;51.986;5.930;2023-01-09T10:42:47;7.35;;;3.15;;
75356;SDS011;63946;51.986;5.930;2023-01-09T10:45:24;4.70;;;2.70;;
75356;SDS011;63946;51.986;5.930;2023-01-09T10:48:01;6.32;;;2.83;;
75356;SDS011;63946;51.986;5.930;2023-01-09T10:50:38;4.47;;;2.00;;
75356;SDS011;63946;51.986;5.930;2023-01-09T10:53:21;7.72;;;2.03;;
75356;SDS011;63946;51.986;5.930;2023-01-09T10:55:55;6.80;;;2.97;;
75356;SDS011;63946;51.986;5.930;2023-01-09T10:58:29;4.57;;;2.22;;
75356;SDS011;63946;51.986;5.930;2023-01-09T11:00:58;6.07;;;2.78;;
75356;SDS011;63946;51.986;5.930;2023-01-09T11:03:27;3.78;;;2.30;;
75356;SDS011;63946;51.986;5.930;2023-01-09T11:05:57;5.00;;;2.20;;
75356;SDS011;63946;51.986;5.930;2023-01-09T11:08:34;2.65;;;1.88;;
75356;SDS011;63946;51.986;5.930;2023-01-09T11:11:07;5.18;;;2.65;;
75356;SDS011;63946;51.986;5.930;2023-01-09T11:13:37;6.30;;;2.47;;
75356;SDS011;63946;51.986;5.930;2023-01-09T11:16:20;4.50;;;2.75;;
75356;SDS011;63946;51.986;5.930;2023-01-09T11:18:54;4.68;;;2.70;;
75356;SDS011;63946;51.986;5.930;2023-01-09T11:21:37;5.68;;;2.28;;
75356;SDS011;63946;51.986;5.930;2023-01-09T11:26:49;4.20;;;1.95;;
75356;SDS011;63946;51.986;5.930;2023-01-09T11:29:20;4.10;;;1.77;;
75356;SDS011;63946;51.986;5.930;2023-01-09T11:31:52;6.32;;;1.90;;
75356;SDS011;63946;51.986;5.930;2023-01-09T11:34:27;7.28;;;2.08;;
75356;SDS011;63946;51.986;5.930;2023-01-09T11:37:18;3.45;;;2.13;;
75356;SDS011;63946;51.986;5.930;2023-01-09T11:39:58;4.07;;;2.50;;
75356;SDS011;63946;51.986;5.930;2023-01-09T11:42:28;4.22;;;1.98;;
75356;SDS011;63946;51.986;5.930;2023-01-09T11:45:19;2.65;;;2.13;;
75356;SDS011;63946;51.986;5.930;2023-01-09T11:47:54;2.35;;;1.60;;
75356;SDS011;63946;51.986;5.930;2023-01-09T11:50:24;3.33;;;2.03;;
75356;SDS011;63946;51.986;5.930;2023-01-09T11:53:15;4.03;;;2.70;;
75356;SDS011;63946;51.986;5.930;2023-01-09T11:55:48;3.55;;;2.28;;
75356;SDS011;63946;51.986;5.930;2023-01-09T11:58:31;4.68;;;1.95;;
75356;SDS011;63946;51.986;5.930;2023-01-09T12:01:16;4.28;;;2.67;;
75356;SDS011;63946;51.986;5.930;2023-01-09T12:10:11;4.50;;;2.08;;
75356;SDS011;63946;51.986;5.930;2023-01-09T12:12:58;4.97;;;2.22;;
75356;SDS011;63946;51.986;5.930;2023-01-09T12:15:43;4.72;;;2.08;;
75356;SDS011;63946;51.986;5.930;2023-01-09T12:21:35;4.70;;;2.50;;
75356;SDS011;63946;51.986;5.930;2023-01-09T12:36:09;6.90;;;2.50;;
75356;SDS011;63946;51.986;5.930;2023-01-09T12:42:02;6.47;;;2.47;;
75356;SDS011;63946;51.986;5.930;2023-01-09T12:44:44;9.75;;;2.88;;
75356;SDS011;63946;51.986;5.930;2023-01-09T12:50:51;5.90;;;2.63;;
75356;SDS011;63946;51.986;5.930;2023-01-09T12:53:20;9.35;;;2.60;;
75356;SDS011;63946;51.986;5.930;2023-01-09T12:55:58;4.93;;;1.83;;
75356;SDS011;63946;51.986;5.930;2023-01-09T13:01:16;8.32;;;2.35;;
75356;SDS011;63946;51.986;5.930;2023-01-09T13:03:57;9.90;;;2.50;;
75356;SDS011;63946;51.986;5.930;2023-01-09T13:06:29;7.88;;;2.40;;
75356;SDS011;63946;51.986;5.930;2023-01-09T13:09:12;7.65;;;3.15;;
75356;SDS011;63946;51.986;5.930;2023-01-09T13:12:03;8.30;;;3.08;;
75356;SDS011;63946;51.986;5.930;2023-01-09T13:15:00;7.13;;;2.30;;
75356;SDS011;63946;51.986;5.930;2023-01-09T13:17:45;5.15;;;2.30;;
75356;SDS011;63946;51.986;5.930;2023-01-09T13:22:53;10.13;;;3.35;;
75356;SDS011;63946;51.986;5.930;2023-01-09T13:28:12;6.97;;;2.42;;
75356;SDS011;63946;51.986;5.930;2023-01-09T13:33:52;8.98;;;2.55;;
75356;SDS011;63946;51.986;5.930;2023-01-09T13:36:30;6.50;;;2.33;;
75356;SDS011;63946;51.986;5.930;2023-01-09T13:39:01;8.07;;;2.83;;
75356;SDS011;63946;51.986;5.930;2023-01-09T13:41:30;5.55;;;2.30;;
75356;SDS011;63946;51.986;5.930;2023-01-09T13:46:51;5.40;;;2.35;;
75356;SDS011;63946;51.986;5.930;2023-01-09T13:49:28;5.72;;;2.28;;
75356;SDS011;63946;51.986;5.930;2023-01-09T13:55:23;9.43;;;2.60;;
75356;SDS011;63946;51.986;5.930;2023-01-09T14:00:47;5.78;;;2.17;;
75356;SDS011;63946;51.986;5.930;2023-01-09T14:03:21;9.70;;;2.85;;
75356;SDS011;63946;51.986;5.930;2023-01-09T14:08:27;6.72;;;2.30;;
75356;SDS011;63946;51.986;5.930;2023-01-09T14:16:03;7.03;;;2.55;;
75356;SDS011;63946;51.986;5.930;2023-01-09T14:18:35;6.65;;;2.40;;
75356;SDS011;63946;51.986;5.930;2023-01-09T14:21:06;6.25;;;2.13;;
75356;SDS011;63946;51.986;5.930;2023-01-09T14:23:39;4.22;;;1.77;;
75356;SDS011;63946;51.986;5.930;2023-01-09T14:26:23;4.88;;;2.05;;
75356;SDS011;63946;51.986;5.930;2023-01-09T14:34:55;6.53;;;1.70;;
75356;SDS011;63946;51.986;5.930;2023-01-09T14:37:26;5.68;;;1.63;;
75356;SDS011;63946;51.986;5.930;2023-01-09T14:39:56;6.07;;;1.60;;
75356;SDS011;63946;51.986;5.930;2023-01-09T14:42:27;2.38;;;1.38;;
75356;SDS011;63946;51.986;5.930;2023-01-09T14:45:02;3.83;;;1.50;;
75356;SDS011;63946;51.986;5.930;2023-01-09T14:52:58;3.15;;;1.50;;
75356;SDS011;63946;51.986;5.930;2023-01-09T14:55:54;3.53;;;1.40;;
75356;SDS011;63946;51.986;5.930;2023-01-09T14:58:31;2.85;;;1.80;;
75356;SDS011;63946;51.986;5.930;2023-01-09T15:01:11;4.88;;;1.65;;
75356;SDS011;63946;51.986;5.930;2023-01-09T15:03:44;3.42;;;1.50;;
75356;SDS011;63946;51.986;5.930;2023-01-09T15:06:24;4.13;;;2.50;;
75356;SDS011;63946;51.986;5.930;2023-01-09T15:11:29;3.10;;;1.92;;
75356;SDS011;63946;51.986;5.930;2023-01-09T15:14:00;4.88;;;1.60;;
75356;SDS011;63946;51.986;5.930;2023-01-09T15:16:29;2.55;;;1.67;;
75356;SDS011;63946;51.986;5.930;2023-01-09T15:18:59;4.20;;;1.92;;
75356;SDS011;63946;51.986;5.930;2023-01-09T15:21:29;3.25;;;1.67;;
75356;SDS011;63946;51.986;5.930;2023-01-09T15:24:10;2.70;;;1.98;;
75356;SDS011;63946;51.986;5.930;2023-01-09T15:27:00;2.95;;;1.65;;
75356;SDS011;63946;51.986;5.930;2023-01-09T15:29:31;3.83;;;1.95;;
75356;SDS011;63946;51.986;5.930;2023-01-09T15:32:24;3.55;;;1.85;;
75356;SDS011;63946;51.986;5.930;2023-01-09T15:34:56;7.32;;;1.85;;
75356;SDS011;63946;51.986;5.930;2023-01-09T15:37:27;4.00;;;1.88;;
75356;SDS011;63946;51.986;5.930;2023-01-09T15:40:04;6.05;;;1.65;;
75356;SDS011;63946;51.986;5.930;2023-01-09T15:42:46;7.72;;;1.83;;
75356;SDS011;63946;51.986;5.930;2023-01-09T15:45:39;5.88;;;2.10;;
75356;SDS011;63946;51.986;5.930;2023-01-09T15:48:29;5.95;;;2.10;;
75356;SDS011;63946;51.986;5.930;2023-01-09T15:53:39;4.57;;;1.52;;
75356;SDS011;63946;51.986;5.930;2023-01-09T15:56:16;4.80;;;2.08;;
75356;SDS011;63946;51.986;5.930;2023-01-09T15:58:49;5.45;;;1.70;;
75356;SDS011;63946;51.986;5.930;2023-01-09T16:01:23;6.35;;;2.65;;
75356;SDS011;63946;51.986;5.930;2023-01-09T16:03:53;4.10;;;1.83;;
75356;SDS011;63946;51.986;5.930;2023-01-09T16:06:25;3.97;;;1.90;;
75356;SDS011;63946;51.986;5.930;2023-01-09T16:08:57;6.72;;;2.45;;
75356;SDS011;63946;51.986;5.930;2023-01-09T16:11:31;5.20;;;2.00;;
75356;SDS011;63946;51.986;5.930;2023-01-09T16:17:06;7.72;;;2.40;;
75356;SDS011;63946;51.986;5.930;2023-01-09T16:19:46;6.47;;;2.25;;
75356;SDS011;63946;51.986;5.930;2023-01-09T16:22:25;7.10;;;2.40;;
75356;SDS011;63946;51.986;5.930;2023-01-09T16:24:58;5.03;;;2.10;;
75356;SDS011;63946;51.986;5.930;2023-01-09T16:27:29;8.82;;;2.42;;
75356;SDS011;63946;51.986;5.930;2023-01-09T16:30:00;6.40;;;2.10;;
75356;SDS011;63946;51.986;5.930;2023-01-09T16:32:46;5.53;;;2.08;;
75356;SDS011;63946;51.986;5.930;2023-01-09T16:35:18;5.07;;;2.38;;
75356;SDS011;63946;51.986;5.930;2023-01-09T16:37:55;4.40;;;2.97;;
75356;SDS011;63946;51.986;5.930;2023-01-09T16:40:25;7.93;;;2.22;;
75356;SDS011;63946;51.986;5.930;2023-01-09T16:42:57;5.35;;;2.90;;
75356;SDS011;63946;51.986;5.930;2023-01-09T16:45:26;8.18;;;3.00;;
75356;SDS011;63946;51.986;5.930;2023-01-09T16:47:56;8.15;;;3.42;;
75356;SDS011;63946;51.986;5.930;2023-01-09T16:50:25;4.90;;;2.53;;
75356;SDS011;63946;51.986;5.930;2023-01-09T16:52:56;7.45;;;3.10;;
75356;SDS011;63946;51.986;5.930;2023-01-09T16:55:26;6.93;;;3.13;;
75356;SDS011;63946;51.986;5.930;2023-01-09T16:57:56;4.60;;;2.28;;
75356;SDS011;63946;51.986;5.930;2023-01-09T17:00:24;9.73;;;3.63;;
75356;SDS011;63946;51.986;5.930;2023-01-09T17:02:56;9.38;;;4.60;;
75356;SDS011;63946;51.986;5.930;2023-01-09T17:05:28;5.93;;;2.65;;
75356;SDS011;63946;51.986;5.930;2023-01-09T17:07:57;8.30;;;3.47;;
75356;SDS011;63946;51.986;5.930;2023-01-09T17:10:25;9.35;;;2.63;;
75356;SDS011;63946;51.986;5.930;2023-01-09T17:12:57;7.18;;;3.60;;
75356;SDS011;63946;51.986;5.930;2023-01-09T17:15:26;8.60;;;3.58;;
75356;SDS011;63946;51.986;5.930;2023-01-09T17:17:54;9.25;;;3.58;;
75356;SDS011;63946;51.986;5.930;2023-01-09T17:20:25;8.05;;;3.83;;
75356;SDS011;63946;51.986;5.930;2023-01-09T17:22:55;7.97;;;4.03;;
75356;SDS011;63946;51.986;5.930;2023-01-09T17:25:24;9.48;;;3.78;;
75356;SDS011;63946;51.986;5.930;2023-01-09T17:28:09;7.05;;;3.40;;
75356;SDS011;63946;51.986;5.930;2023-01-09T17:30:56;7.28;;;3.35;;
75356;SDS011;63946;51.986;5.930;2023-01-09T17:33:37;11.85;;;4.65;;
75356;SDS011;63946;51.986;5.930;2023-01-09T17:36:24;9.88;;;3.90;;
75356;SDS011;63946;51.986;5.930;2023-01-09T17:38:59;15.88;;;4.15;;
75356;SDS011;63946;51.986;5.930;2023-01-09T17:41:31;10.50;;;3.55;;
75356;SDS011;63946;51.986;5.930;2023-01-09T17:44:00;9.23;;;3.20;;
75356;SDS011;63946;51.986;5.930;2023-01-09T17:46:30;10.50;;;3.30;;
75356;SDS011;63946;51.986;5.930;2023-01-09T17:49:01;9.98;;;3.45;;
75356;SDS011;63946;51.986;5.930;2023-01-09T17:51:32;7.85;;;3.15;;
75356;SDS011;63946;51.986;5.930;2023-01-09T17:54:04;11.82;;;3.47;;
75356;SDS011;63946;51.986;5.930;2023-01-09T17:56:33;12.48;;;3.67;;
75356;SDS011;63946;51.986;5.930;2023-01-09T17:59:05;7.53;;;3.70;;
75356;SDS011;63946;51.986;5.930;2023-01-09T18:01:34;7.15;;;3.67;;
75356;SDS011;63946;51.986;5.930;2023-01-09T18:04:03;5.68;;;2.95;;
75356;SDS011;63946;51.986;5.930;2023-01-09T18:06:34;7.22;;;3.35;;
75356;SDS011;63946;51.986;5.930;2023-01-09T18:09:04;8.85;;;2.97;;
75356;SDS011;63946;51.986;5.930;2023-01-09T18:11:33;7.38;;;3.28;;
75356;SDS011;63946;51.986;5.930;2023-01-09T18:14:02;8.15;;;2.58;;
75356;SDS011;63946;51.986;5.930;2023-01-09T18:16:35;7.30;;;3.42;;
75356;SDS011;63946;51.986;5.930;2023-01-09T18:19:04;6.90;;;2.80;;
75356;SDS011;63946;51.986;5.930;2023-01-09T18:21:34;8.30;;;2.97;;
75356;SDS011;63946;51.986;5.930;2023-01-09T18:24:03;7.97;;;3.25;;
75356;SDS011;63946;51.986;5.930;2023-01-09T18:26:32;8.98;;;2.60;;
75356;SDS011;63946;51.986;5.930;2023-01-09T18:29:01;9.50;;;3.35;;
75356;SDS011;63946;51.986;5.930;2023-01-09T18:31:29;6.05;;;2.85;;
75356;SDS011;63946;51.986;5.930;2023-01-09T18:33:58;8.52;;;3.70;;
75356;SDS011;63946;51.986;5.930;2023-01-09T18:36:31;8.20;;;3.50;;
75356;SDS011;63946;51.986;5.930;2023-01-09T18:39:01;6.78;;;3.60;;
75356;SDS011;63946;51.986;5.930;2023-01-09T18:41:35;5.97;;;3.45;;
75356;SDS011;63946;51.986;5.930;2023-01-09T18:44:04;8.80;;;3.53;;
75356;SDS011;63946;51.986;5.930;2023-01-09T18:46:36;6.85;;;3.03;;
75356;SDS011;63946;51.986;5.930;2023-01-09T18:49:07;9.10;;;3.17;;
75356;SDS011;63946;51.986;5.930;2023-01-09T18:51:36;7.43;;;3.83;;
75356;SDS011;63946;51.986;5.930;2023-01-09T18:54:05;6.82;;;3.67;;
75356;SDS011;63946;51.986;5.930;2023-01-09T18:56:36;8.38;;;3.53;;
75356;SDS011;63946;51.986;5.930;2023-01-09T18:59:05;8.93;;;3.25;;
75356;SDS011;63946;51.986;5.930;2023-01-09T19:01:34;7.75;;;3.45;;
75356;SDS011;63946;51.986;5.930;2023-01-09T19:04:03;7.15;;;3.13;;
75356;SDS011;63946;51.986;5.930;2023-01-09T19:06:32;10.98;;;3.58;;
75356;SDS011;63946;51.986;5.930;2023-01-09T19:09:01;6.57;;;2.97;;
75356;SDS011;63946;51.986;5.930;2023-01-09T19:11:31;7.38;;;3.22;;
75356;SDS011;63946;51.986;5.930;2023-01-09T19:13:59;6.50;;;2.85;;
75356;SDS011;63946;51.986;5.930;2023-01-09T19:16:28;8.38;;;3.45;;
75356;SDS011;63946;51.986;5.930;2023-01-09T19:18:57;9.18;;;3.35;;
75356;SDS011;63946;51.986;5.930;2023-01-09T19:21:27;5.68;;;2.75;;
75356;SDS011;63946;51.986;5.930;2023-01-09T19:23:56;11.10;;;3.47;;
75356;SDS011;63946;51.986;5.930;2023-01-09T19:26:25;8.70;;;2.78;;
75356;SDS011;63946;51.986;5.930;2023-01-09T19:28:58;6.57;;;3.47;;
75356;SDS011;63946;51.986;5.930;2023-01-09T19:31:27;7.47;;;3.42;;
75356;SDS011;63946;51.986;5.930;2023-01-09T19:33:56;6.55;;;2.67;;
75356;SDS011;63946;51.986;5.930;2023-01-09T19:36:25;7.53;;;2.90;;
75356;SDS011;63946;51.986;5.930;2023-01-09T19:38:55;7.50;;;3.55;;
75356;SDS011;63946;51.986;5.930;2023-01-09T19:41:28;9.65;;;3.72;;
75356;SDS011;63946;51.986;5.930;2023-01-09T19:43:57;7.85;;;3.45;;
75356;SDS011;63946;51.986;5.930;2023-01-09T19:46:30;6.50;;;3.60;;
75356;SDS011;63946;51.986;5.930;2023-01-09T19:49:00;8.50;;;3.67;;
75356;SDS011;63946;51.986;5.930;2023-01-09T19:51:31;8.00;;;3.88;;
75356;SDS011;63946;51.986;5.930;2023-01-09T19:54:01;10.25;;;3.30;;
75356;SDS011;63946;51.986;5.930;2023-01-09T19:56:31;7.28;;;3.00;;
75356;SDS011;63946;51.986;5.930;2023-01-09T19:59:05;7.75;;;2.70;;
75356;SDS011;63946;51.986;5.930;2023-01-09T20:01:35;7.80;;;3.15;;
75356;SDS011;63946;51.986;5.930;2023-01-09T20:04:06;7.55;;;3.20;;
75356;SDS011;63946;51.986;5.930;2023-01-09T20:06:42;4.55;;;2.60;;
75356;SDS011;63946;51.986;5.930;2023-01-09T20:09:14;7.32;;;2.58;;
75356;SDS011;63946;51.986;5.930;2023-01-09T20:11:46;7.70;;;2.63;;
75356;SDS011;63946;51.986;5.930;2023-01-09T20:14:16;8.02;;;3.00;;
75356;SDS011;63946;51.986;5.930;2023-01-09T20:16:47;5.97;;;3.63;;
75356;SDS011;63946;51.986;5.930;2023-01-09T20:19:18;5.72;;;2.70;;
75356;SDS011;63946;51.986;5.930;2023-01-09T20:21:47;6.03;;;2.83;;
75356;SDS011;63946;51.986;5.930;2023-01-09T20:24:16;4.95;;;1.90;;
75356;SDS011;63946;51.986;5.930;2023-01-09T20:26:45;9.82;;;3.33;;
75356;SDS011;63946;51.986;5.930;2023-01-09T20:29:14;7.95;;;3.03;;
75356;SDS011;63946;51.986;5.930;2023-01-09T20:31:43;7.40;;;3.10;;
75356;SDS011;63946;51.986;5.930;2023-01-09T20:34:12;6.80;;;2.90;;
75356;SDS011;63946;51.986;5.930;2023-01-09T20:36:42;6.45;;;2.50;;
75356;SDS011;63946;51.986;5.930;2023-01-09T20:39:11;6.70;;;2.72;;
75356;SDS011;63946;51.986;5.930;2023-01-09T20:41:40;8.70;;;2.97;;
75356;SDS011;63946;51.986;5.930;2023-01-09T20:44:12;8.52;;;2.30;;
75356;SDS011;63946;51.986;5.930;2023-01-09T20:46:43;8.60;;;3.05;;
75356;SDS011;63946;51.986;5.930;2023-01-09T20:49:13;5.93;;;2.25;;
75356;SDS011;63946;51.986;5.930;2023-01-09T20:51:44;6.13;;;2.40;;
75356;SDS011;63946;51.986;5.930;2023-01-09T20:54:15;8.38;;;2.70;;
75356;SDS011;63946;51.986;5.930;2023-01-09T20:56:45;4.25;;;2.05;;
75356;SDS011;63946;51.986;5.930;2023-01-09T20:59:15;10.20;;;2.70;;
75356;SDS011;63946;51.986;5.930;2023-01-09T21:01:45;7.43;;;3.15;;
75356;SDS011;63946;51.986;5.930;2023-01-09T21:04:14;9.10;;;3.33;;
75356;SDS011;63946;51.986;5.930;2023-01-09T21:09:16;9.02;;;3.50;;
75356;SDS011;63946;51.986;5.930;2023-01-09T21:11:45;6.43;;;2.83;;
75356;SDS011;63946;51.986;5.930;2023-01-09T21:14:16;8.30;;;3.83;;
75356;SDS011;63946;51.986;5.930;2023-01-09T21:16:47;8.07;;;3.67;;
75356;SDS011;63946;51.986;5.930;2023-01-09T21:19:16;10.65;;;3.90;;
75356;SDS011;63946;51.986;5.930;2023-01-09T21:21:46;6.55;;;4.20;;
75356;SDS011;63946;51.986;5.930;2023-01-09T21:24:14;8.80;;;3.67;;
75356;SDS011;63946;51.986;5.930;2023-01-09T21:26:43;10.73;;;4.10;;
75356;SDS011;63946;51.986;5.930;2023-01-09T21:29:12;10.48;;;3.90;;
75356;SDS011;63946;51.986;5.930;2023-01-09T21:31:41;9.05;;;4.00;;
75356;SDS011;63946;51.986;5.930;2023-01-09T21:34:09;7.15;;;3.35;;
75356;SDS011;63946;51.986;5.930;2023-01-09T21:36:39;7.60;;;3.08;;
75356;SDS011;63946;51.986;5.930;2023-01-09T21:39:09;9.63;;;2.97;;
75356;SDS011;63946;51.986;5.930;2023-01-09T21:41:38;5.75;;;2.20;;
75356;SDS011;63946;51.986;5.930;2023-01-09T21:44:19;8.93;;;3.33;;
75356;SDS011;63946;51.986;5.930;2023-01-09T21:47:00;8.68;;;3.17;;
75356;SDS011;63946;51.986;5.930;2023-01-09T21:49:30;11.10;;;3.67;;
75356;SDS011;63946;51.986;5.930;2023-01-09T21:52:00;9.82;;;3.78;;
75356;SDS011;63946;51.986;5.930;2023-01-09T21:54:30;10.40;;;2.90;;
75356;SDS011;63946;51.986;5.930;2023-01-09T21:57:00;7.07;;;2.55;;
75356;SDS011;63946;51.986;5.930;2023-01-09T21:59:29;6.95;;;2.80;;
75356;SDS011;63946;51.986;5.930;2023-01-09T22:01:58;9.00;;;2.95;;
75356;SDS011;63946;51.986;5.930;2023-01-09T22:04:27;7.50;;;2.65;;
75356;SDS011;63946;51.986;5.930;2023-01-09T22:06:58;6.38;;;2.72;;
75356;SDS011;63946;51.986;5.930;2023-01-09T22:09:26;9.73;;;2.85;;
75356;SDS011;63946;51.986;5.930;2023-01-09T22:11:55;9.93;;;2.72;;
75356;SDS011;63946;51.986;5.930;2023-01-09T22:14:26;10.07;;;3.10;;
